createdAt,value
2022-09-05T00:01:58.548Z,92.60
2022-09-05T00:04:44.754Z,92.80
2022-09-05T00:07:41.247Z,93.00
2022-09-05T00:10:10.236Z,93.30
2022-09-05T00:12:37.925Z,93.70
2022-09-05T00:15:23.884Z,93.10
2022-09-05T00:21:48.246Z,93.20
2022-09-05T00:24:26.253Z,93.50
2022-09-05T00:24:42.693Z,93.60
2022-09-05T00:26:57.012Z,93.50
2022-09-05T00:31:05.479Z,93.70
2022-09-05T00:32:29.203Z,93.70
2022-09-05T00:35:01.911Z,93.80
2022-09-05T00:37:45.291Z,93.80
2022-09-05T00:40:18.163Z,93.60
2022-09-05T00:42:47.961Z,93.90
2022-09-05T00:45:19.627Z,94.10
2022-09-05T00:47:52.287Z,93.90
2022-09-05T00:50:22.307Z,94.10
2022-09-05T00:53:07.535Z,93.70
2022-09-05T00:55:46.321Z,93.90
2022-09-05T00:58:43.104Z,93.80
2022-09-05T01:01:24.892Z,94.30
2022-09-05T01:04:10.890Z,94.30
2022-09-05T01:06:37.431Z,93.90
2022-09-05T01:09:28.958Z,93.80
2022-09-05T01:12:04.622Z,94.10
2022-09-05T01:14:43.948Z,94.70
2022-09-05T01:17:27.159Z,94.30
2022-09-05T01:20:19.119Z,94.60
2022-09-05T01:22:59.199Z,94.20
2022-09-05T01:25:37.362Z,94.70
2022-09-05T01:29:18.348Z,94.50
2022-09-05T01:31:43.311Z,94.80
2022-09-05T01:34:39.575Z,94.70
2022-09-05T01:37:33.457Z,95.00
2022-09-05T01:40:14.413Z,95.00
2022-09-05T01:43:15.217Z,95.30
2022-09-05T01:46:08.974Z,94.90
2022-09-05T01:48:47.575Z,95.80
2022-09-05T01:51:33.210Z,95.50
2022-09-05T01:53:59.751Z,95.60
2022-09-05T01:56:33.623Z,95.60
2022-09-05T01:59:23.559Z,95.20
2022-09-05T02:01:55.546Z,95.20
2022-09-05T02:04:40.742Z,95.40
2022-09-05T02:07:30.218Z,95.90
2022-09-05T02:10:00.103Z,95.60
2022-09-05T02:12:56.827Z,96.10
2022-09-05T02:15:39.621Z,96.60
2022-09-05T02:18:11.544Z,96.00
2022-09-05T02:20:41.004Z,96.40
2022-09-05T02:23:25.985Z,95.90
2022-09-05T02:26:07.505Z,96.20
2022-09-05T02:28:53.047Z,96.40
2022-09-05T02:31:27.765Z,97.20
2022-09-05T02:34:02.070Z,96.50
2022-09-05T02:36:49.383Z,96.20
2022-09-05T02:45:09.511Z,96.90
2022-09-05T02:45:16.501Z,96.70
2022-09-05T02:45:25.674Z,96.70
2022-09-05T02:47:55.535Z,96.80
2022-09-05T02:53:52.056Z,96.70
2022-09-05T02:57:34.406Z,96.70
2022-09-05T02:57:34.740Z,97.30
2022-09-05T02:59:39.196Z,97.70
2022-09-05T03:02:25.342Z,97.10
2022-09-05T03:05:04.299Z,97.60
2022-09-05T03:07:42.856Z,97.20
2022-09-05T03:10:14.196Z,97.40
2022-09-05T03:12:40.718Z,97.20
2022-09-05T03:15:23.202Z,97.00
2022-09-05T03:17:53.430Z,97.30
2022-09-05T03:20:37.162Z,97.20
2022-09-05T03:23:22.079Z,97.80
2022-09-05T03:26:13.751Z,97.60
2022-09-05T03:28:58.993Z,97.20
2022-09-05T03:31:33.343Z,97.70
2022-09-05T03:34:18.730Z,97.60
2022-09-05T03:37:04.269Z,97.80
2022-09-05T03:39:53.396Z,97.90
2022-09-05T03:42:35.262Z,97.80
2022-09-05T03:45:05.082Z,98.40
2022-09-05T03:47:34.683Z,98.20
2022-09-05T03:57:07.964Z,98.10
2022-09-05T03:57:18.320Z,98.30
2022-09-05T03:57:28.078Z,99.10
2022-09-05T03:59:12.402Z,98.80
2022-09-05T04:03:55.399Z,98.40
2022-09-05T04:08:09.417Z,98.20
2022-09-05T04:08:23.654Z,98.30
2022-09-05T04:10:23.221Z,98.50
2022-09-05T04:12:52.717Z,98.40
2022-09-05T04:15:37.511Z,98.30
2022-09-05T04:18:32.779Z,98.40
2022-09-05T04:21:03.650Z,98.40
2022-09-05T04:23:35.959Z,98.30
2022-09-05T04:26:12.397Z,98.60
2022-09-05T04:28:53.889Z,98.60
2022-09-05T04:31:39.481Z,99.00
2022-09-05T04:34:18.472Z,98.40
2022-09-05T04:36:46.090Z,98.80
2022-09-05T04:39:18.675Z,98.70
2022-09-05T04:42:07.109Z,98.60
2022-09-05T04:44:40.445Z,98.60
2022-09-05T04:47:13.501Z,98.90
2022-09-05T04:49:51.470Z,98.70
2022-09-05T04:52:31.977Z,99.20
2022-09-05T04:55:02.158Z,99.50
2022-09-05T04:57:33.611Z,99.00
2022-09-05T05:06:02.263Z,99.00
2022-09-05T05:06:16.675Z,99.10
2022-09-05T05:06:18.704Z,98.90
2022-09-05T05:08:39.851Z,99.50
2022-09-05T05:17:22.313Z,99.40
2022-09-05T05:18:01.973Z,99.90
2022-09-05T05:18:13.273Z,99.40
2022-09-05T05:20:40.509Z,99.40
2022-09-05T05:22:46.237Z,99.60
2022-09-05T05:25:13.071Z,99.90
2022-09-05T05:27:49.449Z,99.70
2022-09-05T05:30:24.070Z,99.90
2022-09-05T05:32:52.499Z,99.90
2022-09-05T05:35:23.827Z,99.80
2022-09-05T05:37:53.966Z,99.90
2022-09-05T05:40:26.344Z,99.90
2022-09-05T05:43:12.718Z,99.90
2022-09-05T05:45:39.503Z,99.90
2022-09-05T05:48:08.161Z,99.90
2022-09-05T05:50:49.918Z,99.90
2022-09-05T05:53:42.834Z,99.90
2022-09-05T05:56:29.043Z,99.90
2022-09-05T05:59:07.386Z,99.90
2022-09-05T06:01:48.453Z,99.90
2022-09-05T06:04:34.199Z,99.90
2022-09-05T06:07:17.236Z,99.90
2022-09-05T06:14:49.251Z,99.90
2022-09-05T06:15:04.632Z,99.90
2022-09-05T06:15:37.653Z,99.90
2022-09-05T06:18:04.173Z,99.90
2022-09-05T06:22:09.041Z,99.90
2022-09-05T06:23:58.076Z,99.90
2022-09-05T06:26:24.607Z,99.90
2022-09-05T06:29:02.815Z,99.90
2022-09-05T06:31:35.113Z,99.90
2022-09-05T06:34:07.766Z,99.90
2022-09-05T06:37:06.176Z,99.90
2022-09-05T06:39:51.571Z,99.90
2022-09-05T06:42:42.270Z,99.90
2022-09-05T06:45:29.634Z,99.90
2022-09-05T06:47:59.958Z,99.90
2022-09-05T06:50:31.566Z,99.90
2022-09-05T06:53:39.583Z,99.90
2022-09-05T06:56:14.393Z,99.90
2022-09-05T06:59:01.483Z,99.90
2022-09-05T07:01:52.487Z,99.90
2022-09-05T07:05:23.133Z,99.90
2022-09-05T07:07:11.623Z,99.90
2022-09-05T07:09:52.857Z,99.90
2022-09-05T07:12:22.394Z,99.90
2022-09-05T07:14:49.632Z,99.90
2022-09-05T07:17:19.805Z,99.90
2022-09-05T07:19:46.533Z,99.90
2022-09-05T07:22:46.950Z,99.90
2022-09-05T07:25:18.202Z,99.90
2022-09-05T07:28:28.422Z,99.90
2022-09-05T07:30:57.724Z,99.90
2022-09-05T07:33:27.905Z,99.90
2022-09-05T07:35:55.795Z,99.90
2022-09-05T07:38:41.846Z,99.90
2022-09-05T07:41:17.372Z,99.90
2022-09-05T07:43:46.390Z,99.90
2022-09-05T07:46:15.933Z,99.90
2022-09-05T07:49:03.315Z,99.90
2022-09-05T07:56:50.493Z,99.90
2022-09-05T07:56:54.606Z,99.90
2022-09-05T07:57:30.749Z,99.90
2022-09-05T08:00:05.186Z,99.90
2022-09-05T08:02:31.962Z,99.90
2022-09-05T08:05:05.681Z,99.90
2022-09-05T08:07:48.949Z,99.90
2022-09-05T08:10:31.253Z,99.90
2022-09-05T08:13:23.468Z,99.90
2022-09-05T08:16:10.612Z,99.90
2022-09-05T08:18:58.163Z,99.90
2022-09-05T08:21:40.097Z,99.90
2022-09-05T08:24:13.794Z,99.90
2022-09-05T08:26:46.850Z,99.90
2022-09-05T08:29:37.169Z,99.90
2022-09-05T08:32:15.663Z,99.90
2022-09-05T08:34:54.410Z,99.90
2022-09-05T08:37:22.013Z,99.90
2022-09-05T08:39:57.511Z,99.50
2022-09-05T08:43:53.159Z,99.00
2022-09-05T08:46:42.193Z,98.00
2022-09-05T08:48:38.716Z,98.20
2022-09-05T08:51:05.199Z,98.10
2022-09-05T08:53:50.616Z,99.00
2022-09-05T08:56:20.917Z,98.20
2022-09-05T08:59:32.048Z,98.20
2022-09-05T09:02:45.172Z,98.30
2022-09-05T09:05:01.473Z,97.70
2022-09-05T09:07:50.865Z,97.30
2022-09-05T09:10:40.259Z,97.20
2022-09-05T09:13:25.710Z,97.00
2022-09-05T09:16:05.028Z,97.30
2022-09-05T09:18:44.158Z,96.80
2022-09-05T09:21:30.948Z,97.50
2022-09-05T09:24:03.335Z,96.60
2022-09-05T09:26:37.269Z,96.10
2022-09-05T09:29:08.136Z,96.20
2022-09-05T09:31:43.561Z,96.20
2022-09-05T09:34:14.965Z,96.00
2022-09-05T09:37:08.476Z,95.70
2022-09-05T09:39:53.714Z,94.70
2022-09-05T09:42:33.249Z,94.10
2022-09-05T09:45:28.259Z,94.50
2022-09-05T09:48:01.581Z,94.80
2022-09-05T09:50:46.442Z,94.00
2022-09-05T09:53:35.256Z,92.00
2022-09-05T09:56:22.712Z,93.00
2022-09-05T09:58:57.286Z,92.80
2022-09-05T10:01:35.881Z,93.00
2022-09-05T10:10:36.060Z,92.80
2022-09-05T10:10:44.578Z,91.40
2022-09-05T10:11:09.665Z,91.60
2022-09-05T10:12:53.274Z,92.00
2022-09-05T10:15:38.108Z,92.30
2022-09-05T10:18:09.716Z,91.80
2022-09-05T10:20:56.896Z,90.70
2022-09-05T10:23:44.692Z,91.70
2022-09-05T10:26:30.227Z,90.50
2022-09-05T10:28:57.804Z,90.20
2022-09-05T10:35:02.821Z,90.20
2022-09-05T10:35:17.162Z,89.10
2022-09-05T10:37:18.400Z,88.10
2022-09-05T10:39:51.440Z,86.80
2022-09-05T10:42:43.325Z,88.20
2022-09-05T10:45:36.373Z,86.70
2022-09-05T10:48:13.656Z,86.10
2022-09-05T10:50:44.658Z,86.50
2022-09-05T10:53:39.455Z,83.20
2022-09-05T10:56:14.686Z,86.30
2022-09-05T11:01:34.752Z,85.20
2022-09-05T11:02:26.441Z,82.50
2022-09-05T11:04:46.881Z,84.90
2022-09-05T11:07:35.435Z,85.20
2022-09-05T11:10:10.135Z,84.90
2022-09-05T11:12:46.136Z,83.80
2022-09-05T11:15:23.378Z,86.00
2022-09-05T11:18:00.837Z,80.90
2022-09-05T11:20:46.312Z,82.80
2022-09-05T11:23:18.664Z,85.00
2022-09-05T11:25:47.944Z,82.80
2022-09-05T11:28:17.007Z,83.70
2022-09-05T11:30:48.656Z,81.60
2022-09-05T11:39:45.991Z,83.70
2022-09-05T11:39:58.053Z,83.80
2022-09-05T11:40:28.817Z,81.60
2022-09-05T11:42:51.641Z,82.20
2022-09-05T11:45:33.611Z,83.60
2022-09-05T11:48:22.154Z,82.10
2022-09-05T11:50:58.046Z,81.50
2022-09-05T11:53:33.872Z,84.00
2022-09-05T11:56:19.322Z,82.40
2022-09-05T11:59:05.089Z,84.40
2022-09-05T12:01:41.679Z,82.40
2022-09-05T12:04:19.194Z,77.70
2022-09-05T12:06:50.168Z,83.00
2022-09-05T12:09:25.843Z,83.40
2022-09-05T12:12:02.263Z,80.60
2022-09-05T12:14:35.787Z,82.70
2022-09-05T12:17:16.803Z,81.00
2022-09-05T12:20:06.187Z,80.60
2022-09-05T12:22:49.272Z,80.30
2022-09-05T12:26:29.621Z,80.80
2022-09-05T12:29:26.165Z,81.50
2022-09-05T12:32:15.264Z,82.00
2022-09-05T12:36:02.754Z,82.40
2022-09-05T12:40:16.646Z,80.70
2022-09-05T12:41:32.971Z,79.50
2022-09-05T12:42:54.770Z,80.60
2022-09-05T12:45:37.583Z,82.40
2022-09-05T12:48:13.583Z,79.70
2022-09-05T12:50:40.461Z,80.30
2022-09-05T12:53:09.085Z,81.90
2022-09-05T12:55:41.174Z,81.40
2022-09-05T13:02:56.547Z,81.70
2022-09-05T13:03:12.928Z,82.90
2022-09-05T13:04:20.254Z,81.30
2022-09-05T13:06:58.189Z,81.60
2022-09-05T13:09:32.303Z,81.80
2022-09-05T13:15:02.800Z,80.00
2022-09-05T13:15:21.769Z,82.20
2022-09-05T13:18:10.320Z,82.10
2022-09-05T13:20:46.651Z,81.70
2022-09-05T13:23:21.608Z,81.20
2022-09-05T13:25:57.866Z,79.60
2022-09-05T13:28:26.214Z,79.90
2022-09-05T13:36:03.995Z,79.90
2022-09-05T13:37:59.534Z,80.50
2022-09-05T13:38:17.739Z,79.80
2022-09-05T13:39:41.832Z,81.30
2022-09-05T13:42:14.307Z,80.60
2022-09-05T13:44:43.607Z,81.70
2022-09-05T13:47:29.076Z,81.70
2022-09-05T13:50:05.128Z,78.70
2022-09-05T13:52:37.685Z,80.00
2022-09-05T13:55:12.859Z,80.80
2022-09-05T13:57:47.639Z,76.30
2022-09-05T14:00:27.882Z,80.00
2022-09-05T14:03:37.495Z,82.70
2022-09-05T14:06:45.985Z,81.30
2022-09-05T14:09:40.322Z,79.80
2022-09-05T14:12:15.116Z,79.50
2022-09-05T14:15:14.111Z,78.60
2022-09-05T14:17:53.699Z,80.30
2022-09-05T14:20:42.899Z,81.00
2022-09-05T14:23:13.400Z,80.10
2022-09-05T14:25:42.790Z,80.90
2022-09-05T14:28:18.084Z,77.50
2022-09-05T14:33:32.490Z,80.10
2022-09-05T14:37:02.003Z,77.50
2022-09-05T14:37:46.277Z,79.40
2022-09-05T14:39:58.594Z,78.30
2022-09-05T14:42:34.340Z,80.00
2022-09-05T14:45:07.582Z,78.60
2022-09-05T14:47:41.919Z,77.50
2022-09-05T14:50:27.487Z,77.60
2022-09-05T14:56:39.916Z,78.70
2022-09-05T15:02:48.045Z,78.20
2022-09-05T15:02:52.184Z,78.30
2022-09-05T15:05:10.949Z,77.70
2022-09-05T15:07:39.978Z,75.80
2022-09-05T15:12:18.122Z,77.90
2022-09-05T15:12:57.788Z,76.30
2022-09-05T15:15:31.801Z,77.60
2022-09-05T15:18:06.388Z,77.40
2022-09-05T15:20:33.127Z,76.40
2022-09-05T15:22:59.706Z,76.90
2022-09-05T15:25:48.432Z,77.20
2022-09-05T15:28:19.614Z,76.20
2022-09-05T15:30:57.273Z,75.90
2022-09-05T15:33:25.623Z,77.00
2022-09-05T15:35:52.945Z,75.80
2022-09-05T15:38:25.136Z,75.80
2022-09-05T15:41:02.229Z,75.10
2022-09-05T15:43:29.120Z,70.70
2022-09-05T15:46:03.386Z,72.40
2022-09-05T15:48:34.023Z,71.90
2022-09-05T15:51:07.558Z,70.50
2022-09-05T15:53:36.827Z,70.30
2022-09-05T15:56:09.352Z,71.60
2022-09-05T15:58:53.189Z,70.80
2022-09-05T16:01:43.409Z,69.00
2022-09-05T16:10:31.562Z,70.50
2022-09-05T16:10:36.595Z,72.20
2022-09-05T16:10:45.944Z,71.30
2022-09-05T16:12:44.442Z,71.00
2022-09-05T16:19:23.431Z,70.40
2022-09-05T16:23:15.453Z,69.70
2022-09-05T16:23:28.095Z,70.00
2022-09-05T16:23:46.251Z,70.10
2022-09-05T16:26:25.145Z,70.60
2022-09-05T16:28:57.430Z,70.80
2022-09-05T16:31:40.057Z,70.40
2022-09-05T16:34:08.543Z,71.70
2022-09-05T16:36:50.467Z,71.50
2022-09-05T16:39:35.825Z,72.20
2022-09-05T16:42:09.354Z,72.90
2022-09-05T16:44:51.420Z,72.70
2022-09-05T16:47:25.583Z,72.90
2022-09-05T16:49:58.659Z,73.10
2022-09-05T16:52:31.679Z,72.90
2022-09-05T16:55:05.815Z,73.20
2022-09-05T16:57:35.532Z,73.20
2022-09-05T17:00:03.170Z,73.60
2022-09-05T17:02:38.400Z,73.40
2022-09-05T17:05:20.439Z,73.80
2022-09-05T17:07:50.095Z,74.00
2022-09-05T17:10:17.994Z,74.50
2022-09-05T17:12:44.548Z,74.70
2022-09-05T17:15:11.071Z,74.90
2022-09-05T17:18:21.676Z,75.20
2022-09-05T17:20:36.876Z,75.20
2022-09-05T17:29:17.569Z,75.30
2022-09-05T17:29:24.590Z,75.60
2022-09-05T17:29:26.025Z,75.90
2022-09-05T17:31:54.505Z,75.90
2022-09-05T17:34:34.770Z,76.20
2022-09-05T17:37:20.093Z,76.00
2022-09-05T17:39:53.812Z,76.00
2022-09-05T17:42:28.661Z,76.20
2022-09-05T17:44:56.298Z,76.30
2022-09-05T17:47:36.327Z,76.40
2022-09-05T17:50:33.553Z,76.40
2022-09-05T17:53:26.159Z,76.70
2022-09-05T17:55:52.110Z,76.80
2022-09-05T17:58:49.562Z,77.00
2022-09-05T18:01:26.351Z,77.00
2022-09-05T18:03:55.462Z,77.10
2022-09-05T18:06:39.416Z,77.10
2022-09-05T18:09:30.027Z,77.20
2022-09-05T18:15:05.219Z,77.90
2022-09-05T18:17:38.526Z,77.60
2022-09-05T18:20:10.489Z,77.90
2022-09-05T18:22:40.427Z,77.80
2022-09-05T18:25:30.867Z,77.80
2022-09-05T18:28:19.028Z,77.70
2022-09-05T18:30:45.603Z,77.90
2022-09-05T18:33:56.022Z,77.90
2022-09-05T18:36:00.204Z,77.90
2022-09-05T18:38:51.574Z,78.00
2022-09-05T18:41:18.296Z,78.50
2022-09-05T18:44:12.460Z,78.40
2022-09-05T18:46:43.143Z,78.20
2022-09-05T18:50:06.673Z,78.30
2022-09-05T18:52:23.265Z,78.50
2022-09-05T18:55:57.865Z,78.40
2022-09-05T18:57:43.078Z,78.60
2022-09-05T19:00:13.808Z,78.50
2022-09-05T19:02:51.302Z,78.50
2022-09-05T19:05:44.679Z,78.60
2022-09-05T19:08:28.995Z,78.60
2022-09-05T19:11:00.545Z,78.80
2022-09-05T19:13:31.767Z,79.00
2022-09-05T19:16:47.239Z,79.10
2022-09-05T19:19:16.747Z,78.90
2022-09-05T19:21:48.760Z,80.00
2022-09-05T19:24:45.050Z,79.20
2022-09-05T19:28:13.918Z,79.30
2022-09-05T19:36:51.374Z,80.90
2022-09-05T19:36:55.712Z,81.00
2022-09-05T19:37:06.264Z,82.50
2022-09-05T19:38:22.425Z,81.40
2022-09-05T19:47:29.948Z,82.30
2022-09-05T19:47:45.334Z,82.50
2022-09-05T19:47:55.936Z,82.50
2022-09-05T19:49:12.412Z,82.40
2022-09-05T19:51:41.275Z,82.60
2022-09-05T19:54:08.407Z,83.80
2022-09-05T19:56:44.088Z,83.30
2022-09-05T19:59:19.975Z,83.40
2022-09-05T20:01:47.495Z,83.70
2022-09-05T20:04:18.794Z,83.80
2022-09-05T20:06:46.396Z,83.70
2022-09-05T20:09:15.966Z,83.60
2022-09-05T20:11:46.935Z,83.10
2022-09-05T20:14:18.123Z,83.70
2022-09-05T20:16:44.971Z,83.90
2022-09-05T20:19:29.265Z,83.40
2022-09-05T20:22:42.544Z,83.60
2022-09-05T20:24:50.514Z,83.50
2022-09-05T20:27:17.229Z,84.10
2022-09-05T20:29:55.241Z,85.10
2022-09-05T20:32:39.806Z,85.30
2022-09-05T20:39:26.608Z,85.20
2022-09-05T20:43:14.900Z,86.40
2022-09-05T20:43:30.599Z,86.80
2022-09-05T20:43:58.049Z,86.60
2022-09-05T20:50:56.957Z,88.20
2022-09-05T20:54:06.214Z,89.80
2022-09-05T20:54:15.602Z,90.60
2022-09-05T20:55:39.637Z,91.10
2022-09-05T20:58:19.779Z,92.40
2022-09-05T21:01:19.876Z,94.70
2022-09-05T21:03:45.358Z,95.30
2022-09-05T21:06:23.515Z,96.00
2022-09-05T21:08:50.940Z,95.20
2022-09-05T21:11:17.671Z,96.70
2022-09-05T21:13:53.077Z,98.80
2022-09-05T21:16:24.196Z,99.90
2022-09-05T21:18:51.127Z,99.90
2022-09-05T21:21:30.030Z,99.90
2022-09-05T21:24:00.117Z,99.90
2022-09-05T21:26:42.439Z,99.90
2022-09-05T21:29:16.353Z,99.90
2022-09-05T21:31:54.453Z,99.90
2022-09-05T21:34:25.962Z,99.90
2022-09-05T21:36:52.972Z,99.90
2022-09-05T21:39:36.128Z,99.90
2022-09-05T21:42:06.465Z,99.90
2022-09-05T21:47:43.207Z,99.90
2022-09-05T21:47:52.339Z,99.90
2022-09-05T21:50:30.804Z,99.90
2022-09-05T21:53:51.033Z,99.90
2022-09-05T21:59:16.300Z,99.90
2022-09-05T21:59:20.182Z,99.90
2022-09-05T22:01:20.942Z,99.90
2022-09-05T22:04:09.247Z,99.90
2022-09-05T22:06:36.769Z,99.90
2022-09-05T22:09:12.904Z,99.90
2022-09-05T22:11:40.033Z,99.90
2022-09-05T22:14:07.367Z,99.90
2022-09-05T22:16:34.251Z,99.90
2022-09-05T22:19:01.056Z,99.90
2022-09-05T22:21:36.912Z,99.90
2022-09-05T22:24:05.143Z,99.90
2022-09-05T22:26:37.694Z,99.90
2022-09-05T22:29:06.900Z,99.90
2022-09-05T22:31:33.963Z,99.90
2022-09-05T22:34:00.597Z,99.90
2022-09-05T22:36:27.260Z,99.90
2022-09-05T22:38:54.035Z,99.90
2022-09-05T22:41:24.910Z,99.90
2022-09-05T22:43:57.028Z,99.90
2022-09-05T22:46:23.897Z,99.90
2022-09-05T22:48:50.655Z,99.90
2022-09-05T22:51:18.171Z,99.90
2022-09-05T22:53:45.097Z,99.90
2022-09-05T22:56:12.183Z,99.90
2022-09-05T22:58:40.422Z,99.90
2022-09-05T23:01:07.049Z,99.90
2022-09-05T23:03:34.187Z,99.90
2022-09-05T23:06:01.670Z,99.90
2022-09-05T23:08:28.395Z,99.90
2022-09-05T23:10:55.110Z,99.90
2022-09-05T23:13:22.012Z,99.90
2022-09-05T23:15:48.781Z,99.90
2022-09-05T23:18:15.562Z,99.90
2022-09-05T23:20:42.271Z,99.90
2022-09-05T23:23:09.035Z,99.90
2022-09-05T23:25:36.249Z,99.90
2022-09-05T23:28:06.963Z,99.90
2022-09-05T23:30:34.055Z,99.90
2022-09-05T23:33:00.609Z,99.90
2022-09-05T23:35:27.315Z,99.90
2022-09-05T23:37:53.899Z,99.90
2022-09-05T23:40:21.903Z,99.90
2022-09-05T23:42:52.760Z,99.90
2022-09-05T23:45:19.360Z,99.90
2022-09-05T23:47:46.120Z,99.90
2022-09-05T23:50:12.967Z,99.90
2022-09-05T23:52:40.129Z,99.90
2022-09-05T23:55:06.906Z,99.90
2022-09-05T23:57:33.618Z,99.90
